createdAt,value
2019-04-19T00:01:24.691Z,52.30
2019-04-19T00:03:59.126Z,52.20
2019-04-19T00:06:39.701Z,52.20
2019-04-19T00:09:21.764Z,52.30
2019-04-19T00:11:45.726Z,52.40
2019-04-19T00:14:10.757Z,52.30
2019-04-19T00:16:40.622Z,52.30
2019-04-19T00:19:31.706Z,52.40
2019-04-19T00:22:05.039Z,52.40
2019-04-19T00:24:12.158Z,52.30
2019-04-19T00:26:42.177Z,52.40
2019-04-19T00:29:20.177Z,52.30
2019-04-19T00:31:53.411Z,52.30
2019-04-19T00:34:12.600Z,52.30
2019-04-19T00:36:42.608Z,52.30
2019-04-19T00:39:46.590Z,52.30
2019-04-19T00:42:39.996Z,52.30
2019-04-19T00:45:19.966Z,52.30
2019-04-19T00:47:47.723Z,52.50
2019-04-19T00:50:15.759Z,52.30
2019-04-19T00:52:50.261Z,52.30
2019-04-19T00:55:12.746Z,52.30
2019-04-19T00:57:42.323Z,52.30
2019-04-19T01:00:06.635Z,52.30
2019-04-19T01:02:44.052Z,52.30
2019-04-19T01:05:10.358Z,52.30
2019-04-19T01:07:39.466Z,52.30
2019-04-19T01:10:22.929Z,52.30
2019-04-19T01:12:55.331Z,52.30
2019-04-19T01:15:22.025Z,52.30
2019-04-19T01:17:58.830Z,52.20
2019-04-19T01:20:13.986Z,52.30
2019-04-19T01:22:44.031Z,52.30
2019-04-19T01:25:20.479Z,52.30
2019-04-19T01:27:44.670Z,52.30
2019-04-19T01:30:17.026Z,52.40
2019-04-19T01:32:51.272Z,52.40
2019-04-19T01:35:18.484Z,52.30
2019-04-19T01:37:53.120Z,52.40
2019-04-19T01:40:35.224Z,52.40
2019-04-19T01:43:07.721Z,52.40
2019-04-19T01:46:01.006Z,52.50
2019-04-19T01:48:33.928Z,52.50
2019-04-19T01:51:15.973Z,52.50
2019-04-19T01:53:46.168Z,52.50
2019-04-19T01:56:08.450Z,52.60
2019-04-19T01:58:38.849Z,52.60
2019-04-19T02:01:12.503Z,52.50
2019-04-19T02:03:38.823Z,52.60
2019-04-19T02:06:10.795Z,52.60
2019-04-19T02:08:41.382Z,52.60
2019-04-19T02:11:48.327Z,52.70
2019-04-19T02:14:13.498Z,52.60
2019-04-19T02:16:40.827Z,52.60
2019-04-19T02:19:14.087Z,52.60
2019-04-19T02:21:45.167Z,52.60
2019-04-19T02:24:14.611Z,52.70
2019-04-19T02:26:46.421Z,52.70
2019-04-19T02:29:20.217Z,52.70
2019-04-19T02:32:13.613Z,52.70
2019-04-19T02:34:39.302Z,52.80
2019-04-19T02:37:16.297Z,52.70
2019-04-19T02:40:15.805Z,52.70
2019-04-19T02:44:58.011Z,52.80
2019-04-19T02:47:29.881Z,52.80
2019-04-19T02:52:22.293Z,52.80
2019-04-19T03:05:20.042Z,53.50
2019-04-19T03:07:28.140Z,53.00
2019-04-19T03:09:58.073Z,52.90
2019-04-19T03:12:51.628Z,52.80
2019-04-19T03:15:09.866Z,53.00
2019-04-19T03:17:45.083Z,53.00
2019-04-19T03:20:16.736Z,53.00
2019-04-19T03:22:49.374Z,53.00
2019-04-19T03:25:15.970Z,53.10
2019-04-19T03:27:51.113Z,53.00
2019-04-19T03:30:16.843Z,53.10
2019-04-19T03:33:04.729Z,53.10
2019-04-19T03:35:17.943Z,53.10
2019-04-19T03:37:54.758Z,53.20
2019-04-19T03:40:57.563Z,53.20
2019-04-19T03:43:04.215Z,53.40
2019-04-19T03:45:34.840Z,53.30
2019-04-19T03:48:13.248Z,53.20
2019-04-19T03:50:37.634Z,53.30
2019-04-19T03:53:09.231Z,53.30
2019-04-19T03:55:43.059Z,53.30
2019-04-19T03:58:00.478Z,53.30
2019-04-19T04:00:24.065Z,53.30
2019-04-19T04:02:54.349Z,53.40
2019-04-19T04:05:24.445Z,53.40
2019-04-19T04:08:06.137Z,53.50
2019-04-19T04:10:38.748Z,53.50
2019-04-19T04:13:30.682Z,53.60
2019-04-19T04:16:11.573Z,53.50
2019-04-19T04:18:28.299Z,53.50
2019-04-19T04:20:58.990Z,53.50
2019-04-19T04:23:36.433Z,53.60
2019-04-19T04:26:06.212Z,53.70
2019-04-19T04:28:44.973Z,53.70
2019-04-19T04:31:09.791Z,53.70
2019-04-19T04:33:44.183Z,53.60
2019-04-19T04:36:21.151Z,53.70
2019-04-19T04:38:38.022Z,54.40
2019-04-19T04:41:08.227Z,53.80
2019-04-19T04:43:45.869Z,53.80
2019-04-19T04:46:53.127Z,53.90
2019-04-19T04:49:34.513Z,53.90
2019-04-19T04:52:04.212Z,53.90
2019-04-19T04:54:27.090Z,53.90
2019-04-19T04:57:17.855Z,53.90
2019-04-19T04:59:50.384Z,53.90
2019-04-19T05:02:31.394Z,54.00
2019-04-19T05:05:08.229Z,54.00
2019-04-19T05:07:41.671Z,53.90
2019-04-19T05:10:06.358Z,54.00
2019-04-19T05:13:01.205Z,53.90
2019-04-19T05:15:09.957Z,53.90
2019-04-19T05:17:47.317Z,53.90
2019-04-19T05:20:14.635Z,54.00
2019-04-19T05:22:38.912Z,54.00
2019-04-19T05:25:23.801Z,54.00
2019-04-19T05:27:46.445Z,54.10
2019-04-19T05:29:57.879Z,54.00
2019-04-19T05:32:32.610Z,54.00
2019-04-19T05:35:12.370Z,54.00
2019-04-19T05:38:08.432Z,53.90
2019-04-19T05:41:02.761Z,54.00
2019-04-19T05:44:02.036Z,53.90
2019-04-19T05:46:25.385Z,53.80
2019-04-19T05:48:37.117Z,53.80
2019-04-19T05:51:23.470Z,53.70
2019-04-19T05:53:36.849Z,53.80
2019-04-19T05:55:58.957Z,53.90
2019-04-19T05:58:43.348Z,53.70
2019-04-19T06:01:22.570Z,53.70
2019-04-19T06:03:48.445Z,53.70
2019-04-19T06:06:26.117Z,53.60
2019-04-19T06:08:34.842Z,54.20
2019-04-19T06:11:04.864Z,53.60
2019-04-19T06:13:36.437Z,53.60
2019-04-19T06:16:21.046Z,53.60
2019-04-19T06:18:49.945Z,53.60
2019-04-19T06:21:28.884Z,53.60
2019-04-19T06:24:01.789Z,53.60
2019-04-19T06:29:06.682Z,53.70
2019-04-19T06:31:37.059Z,53.70
2019-04-19T06:34:04.714Z,53.60
2019-04-19T06:36:14.589Z,53.60
2019-04-19T06:38:44.951Z,53.60
2019-04-19T06:41:20.029Z,53.70
2019-04-19T06:43:57.116Z,54.30
2019-04-19T06:46:29.134Z,53.60
2019-04-19T06:48:54.192Z,53.60
2019-04-19T06:51:26.517Z,53.50
2019-04-19T06:53:53.925Z,53.60
2019-04-19T06:56:27.655Z,53.60
2019-04-19T06:58:57.823Z,53.60
2019-04-19T07:01:31.353Z,53.40
2019-04-19T07:03:51.660Z,53.50
2019-04-19T07:06:36.242Z,53.50
2019-04-19T07:11:46.288Z,53.20
2019-04-19T07:14:04.817Z,53.20
2019-04-19T07:16:46.454Z,53.20
2019-04-19T07:19:11.841Z,53.10
2019-04-19T07:21:43.954Z,53.00
2019-04-19T07:24:23.598Z,52.80
2019-04-19T07:26:47.003Z,52.90
2019-04-19T07:29:02.135Z,52.80
2019-04-19T07:31:33.853Z,52.50
2019-04-19T07:34:18.073Z,52.50
2019-04-19T07:36:52.937Z,52.40
2019-04-19T07:39:23.911Z,52.40
2019-04-19T07:41:56.317Z,52.50
2019-04-19T07:44:41.130Z,52.30
2019-04-19T07:47:35.794Z,52.20
2019-04-19T07:50:03.889Z,52.30
2019-04-19T07:52:34.723Z,52.30
2019-04-19T07:55:03.319Z,52.40
2019-04-19T07:58:16.864Z,52.50
2019-04-19T08:00:33.234Z,52.30
2019-04-19T08:03:01.723Z,52.20
2019-04-19T08:05:26.137Z,52.10
2019-04-19T08:10:27.680Z,52.20
2019-04-19T08:17:56.569Z,52.20
2019-04-19T08:27:41.353Z,52.00
2019-04-19T08:30:12.191Z,52.00
2019-04-19T08:32:38.541Z,52.00
2019-04-19T08:35:12.370Z,51.90
2019-04-19T08:37:42.341Z,51.80
2019-04-19T08:40:30.473Z,51.60
2019-04-19T08:42:54.427Z,51.60
2019-04-19T08:45:19.593Z,51.60
2019-04-19T08:48:15.352Z,51.50
2019-04-19T08:50:50.642Z,51.60
2019-04-19T08:53:33.665Z,51.50
2019-04-19T08:56:08.845Z,51.50
2019-04-19T08:58:37.603Z,51.50
2019-04-19T09:01:13.845Z,51.50
2019-04-19T09:03:49.826Z,51.50
2019-04-19T09:06:40.315Z,51.30
2019-04-19T09:08:41.029Z,51.50
2019-04-19T09:11:11.120Z,51.30
2019-04-19T09:13:48.127Z,51.10
2019-04-19T09:16:11.584Z,51.30
2019-04-19T09:18:50.636Z,51.20
2019-04-19T09:21:14.250Z,51.30
2019-04-19T09:23:39.263Z,51.30
2019-04-19T09:26:25.528Z,51.10
2019-04-19T09:28:54.474Z,51.10
2019-04-19T09:31:22.698Z,50.90
2019-04-19T09:33:39.328Z,50.90
2019-04-19T09:36:13.144Z,50.60
2019-04-19T09:38:55.460Z,50.80
2019-04-19T09:41:19.496Z,50.60
2019-04-19T09:43:52.072Z,50.30
2019-04-19T09:46:10.480Z,50.40
2019-04-19T09:48:55.393Z,50.00
2019-04-19T09:51:30.537Z,50.10
2019-04-19T09:54:04.458Z,50.00
2019-04-19T09:56:31.122Z,49.90
2019-04-19T09:58:54.032Z,49.90
2019-04-19T10:01:16.727Z,49.90
2019-04-19T10:03:50.958Z,49.60
2019-04-19T10:06:17.134Z,49.90
2019-04-19T10:08:46.204Z,50.00
2019-04-19T10:11:15.218Z,49.80
2019-04-19T10:13:44.397Z,49.00
2019-04-19T10:16:31.086Z,49.10
2019-04-19T10:19:04.983Z,49.00
2019-04-19T10:21:50.322Z,49.00
2019-04-19T10:24:22.567Z,48.70
2019-04-19T10:26:59.257Z,48.60
2019-04-19T10:29:32.425Z,48.50
2019-04-19T10:32:06.973Z,48.40
2019-04-19T10:34:36.591Z,47.40
2019-04-19T10:37:05.973Z,48.10
2019-04-19T10:39:35.015Z,48.20
2019-04-19T10:42:04.324Z,48.10
2019-04-19T10:44:34.091Z,47.80
2019-04-19T10:47:03.304Z,47.90
2019-04-19T10:49:40.757Z,48.10
2019-04-19T10:52:21.606Z,47.90
2019-04-19T10:54:51.749Z,48.00
2019-04-19T10:57:23.050Z,47.70
2019-04-19T10:59:56.582Z,46.00
2019-04-19T11:02:31.745Z,46.70
2019-04-19T11:05:02.853Z,47.20
2019-04-19T11:07:32.752Z,46.30
2019-04-19T11:10:02.049Z,46.70
2019-04-19T11:12:32.269Z,46.30
2019-04-19T11:15:02.496Z,46.40
2019-04-19T11:17:31.758Z,46.30
2019-04-19T11:20:17.945Z,46.20
2019-04-19T11:22:32.088Z,45.60
2019-04-19T11:25:02.033Z,45.10
2019-04-19T11:27:31.153Z,45.60
2019-04-19T11:30:05.421Z,45.80
2019-04-19T11:32:42.136Z,46.00
2019-04-19T11:35:11.817Z,45.70
2019-04-19T11:37:42.573Z,45.80
2019-04-19T11:40:13.178Z,45.60
2019-04-19T11:42:43.537Z,45.80
2019-04-19T11:45:12.918Z,45.80
2019-04-19T11:47:42.972Z,45.70
2019-04-19T11:50:12.110Z,45.40
2019-04-19T11:53:00.082Z,45.80
2019-04-19T11:55:29.182Z,45.80
2019-04-19T11:57:58.751Z,45.50
2019-04-19T12:00:35.833Z,45.40
2019-04-19T12:03:06.316Z,45.30
2019-04-19T12:05:36.003Z,45.40
2019-04-19T12:08:06.405Z,45.30
2019-04-19T12:10:37.029Z,45.40
2019-04-19T12:13:06.788Z,44.60
2019-04-19T12:15:35.965Z,44.50
2019-04-19T12:18:06.232Z,44.80
2019-04-19T12:20:35.333Z,45.00
2019-04-19T12:23:04.331Z,45.00
2019-04-19T12:25:33.510Z,44.70
2019-04-19T12:28:03.655Z,44.30
2019-04-19T12:30:33.612Z,44.40
2019-04-19T12:33:03.519Z,44.80
2019-04-19T12:35:32.574Z,42.80
2019-04-19T12:38:01.970Z,43.70
2019-04-19T12:40:36.031Z,43.80
2019-04-19T12:43:04.892Z,43.50
2019-04-19T12:45:34.051Z,43.90
2019-04-19T12:48:03.215Z,44.10
2019-04-19T12:50:35.380Z,43.00
2019-04-19T12:53:04.178Z,42.60
2019-04-19T12:55:33.312Z,42.70
2019-04-19T12:58:03.914Z,42.50
2019-04-19T13:00:43.706Z,42.40
2019-04-19T13:03:18.239Z,41.50
2019-04-19T13:05:49.105Z,42.00
2019-04-19T13:08:19.065Z,42.40
2019-04-19T13:10:49.095Z,42.50
2019-04-19T13:13:18.479Z,42.50
2019-04-19T13:15:48.171Z,42.40
2019-04-19T13:18:18.287Z,42.40
2019-04-19T13:20:48.472Z,42.10
2019-04-19T13:23:17.655Z,41.60
2019-04-19T13:25:47.537Z,42.00
2019-04-19T13:28:17.509Z,42.10
2019-04-19T13:30:52.604Z,41.90
2019-04-19T13:33:18.617Z,41.80
2019-04-19T13:35:48.861Z,41.20
2019-04-19T13:38:32.865Z,41.00
2019-04-19T13:41:34.765Z,41.30
2019-04-19T13:44:04.869Z,41.10
2019-04-19T13:46:34.844Z,41.10
2019-04-19T13:49:04.582Z,41.20
2019-04-19T13:51:34.556Z,41.10
2019-04-19T13:54:04.714Z,40.50
2019-04-19T13:56:34.254Z,40.50
2019-04-19T13:59:03.503Z,40.90
2019-04-19T14:01:32.609Z,40.50
2019-04-19T14:04:01.700Z,40.60
2019-04-19T14:06:32.610Z,40.60
2019-04-19T14:09:01.460Z,40.20
2019-04-19T14:11:31.046Z,39.90
2019-04-19T14:14:01.905Z,40.30
2019-04-19T14:16:30.741Z,40.60
2019-04-19T14:19:00.822Z,40.50
2019-04-19T14:21:30.837Z,39.80
2019-04-19T14:23:59.751Z,40.30
2019-04-19T14:26:37.434Z,40.10
2019-04-19T14:28:59.351Z,40.20
2019-04-19T14:31:28.332Z,40.30
2019-04-19T14:33:57.604Z,39.60
2019-04-19T14:36:26.566Z,39.50
2019-04-19T14:38:55.494Z,39.00
2019-04-19T14:41:25.416Z,38.60
2019-04-19T14:43:55.375Z,39.40
2019-04-19T14:46:24.855Z,39.40
2019-04-19T14:48:55.999Z,39.50
2019-04-19T14:51:27.915Z,39.20
2019-04-19T14:53:58.622Z,39.30
2019-04-19T14:56:28.139Z,39.30
2019-04-19T14:58:57.598Z,39.10
2019-04-19T15:01:46.895Z,38.90
2019-04-19T15:04:24.563Z,38.30
2019-04-19T15:06:53.760Z,36.30
2019-04-19T15:09:23.674Z,37.10
2019-04-19T15:11:52.874Z,37.00
2019-04-19T15:14:21.785Z,37.70
2019-04-19T15:16:51.997Z,38.10
2019-04-19T15:19:21.154Z,38.80
2019-04-19T15:21:50.298Z,38.50
2019-04-19T15:24:20.868Z,38.50
2019-04-19T15:26:50.031Z,38.60
2019-04-19T15:29:19.231Z,39.10
2019-04-19T15:31:48.641Z,38.60
2019-04-19T15:34:17.931Z,38.40
2019-04-19T15:36:47.106Z,38.10
2019-04-19T15:39:16.261Z,38.50
2019-04-19T15:41:46.355Z,39.00
2019-04-19T15:44:15.325Z,38.40
2019-04-19T15:46:44.308Z,37.50
2019-04-19T15:49:13.402Z,36.80
2019-04-19T15:51:43.199Z,37.00
2019-04-19T15:54:14.182Z,36.90
2019-04-19T15:56:44.599Z,37.00
2019-04-19T15:59:15.337Z,37.50
2019-04-19T16:02:02.188Z,37.40
2019-04-19T16:05:06.202Z,35.90
2019-04-19T16:07:55.884Z,36.20
2019-04-19T16:11:02.622Z,35.10
2019-04-19T16:13:31.941Z,36.00
2019-04-19T16:16:02.358Z,36.80
2019-04-19T16:18:31.937Z,35.80
2019-04-19T16:21:01.270Z,36.60
2019-04-19T16:23:30.488Z,37.10
2019-04-19T16:25:59.481Z,37.50
2019-04-19T16:28:29.589Z,37.10
2019-04-19T16:30:58.509Z,37.10
2019-04-19T16:33:27.744Z,37.40
2019-04-19T16:35:56.642Z,37.00
2019-04-19T16:38:26.270Z,37.20
2019-04-19T16:40:56.420Z,37.50
2019-04-19T16:43:25.732Z,37.70
2019-04-19T16:46:07.992Z,37.80
2019-04-19T16:48:26.423Z,38.00
2019-04-19T16:50:56.688Z,37.80
2019-04-19T16:53:26.164Z,37.90
2019-04-19T16:55:55.465Z,38.10
2019-04-19T16:58:24.687Z,38.40
2019-04-19T17:00:54.681Z,38.00
2019-04-19T17:03:24.059Z,38.10
2019-04-19T17:05:55.404Z,38.30
2019-04-19T17:08:25.071Z,38.30
2019-04-19T17:10:55.450Z,38.50
2019-04-19T17:13:24.669Z,38.50
2019-04-19T17:16:13.496Z,38.50
2019-04-19T17:19:10.875Z,38.60
2019-04-19T17:21:50.651Z,38.50
2019-04-19T17:24:11.333Z,38.60
2019-04-19T17:26:40.624Z,38.70
2019-04-19T17:29:10.767Z,38.80
2019-04-19T17:31:40.364Z,38.90
2019-04-19T17:34:09.549Z,38.90
2019-04-19T17:36:38.449Z,38.90
2019-04-19T17:39:08.922Z,38.80
2019-04-19T17:41:38.807Z,38.80
2019-04-19T17:44:08.048Z,39.00
2019-04-19T17:46:38.250Z,39.10
2019-04-19T17:49:08.648Z,39.30
2019-04-19T17:51:37.981Z,39.20
2019-04-19T17:54:10.786Z,39.30
2019-04-19T17:56:39.426Z,39.40
2019-04-19T17:59:09.983Z,39.40
2019-04-19T18:01:40.136Z,39.40
2019-04-19T18:04:09.279Z,39.50
2019-04-19T18:06:42.529Z,39.40
2019-04-19T18:09:15.851Z,39.70
2019-04-19T18:11:43.058Z,39.70
2019-04-19T18:14:13.781Z,39.80
2019-04-19T18:16:42.922Z,39.90
2019-04-19T18:19:16.721Z,39.90
2019-04-19T18:21:43.715Z,40.00
2019-04-19T18:24:20.083Z,40.10
2019-04-19T18:26:44.348Z,40.20
2019-04-19T18:29:19.220Z,40.30
2019-04-19T18:31:50.342Z,40.30
2019-04-19T18:34:37.559Z,40.30
2019-04-19T18:37:06.998Z,40.30
2019-04-19T18:39:36.178Z,40.30
2019-04-19T18:42:06.113Z,40.40
2019-04-19T18:44:42.265Z,40.40
2019-04-19T18:47:07.063Z,40.50
2019-04-19T18:49:36.147Z,40.60
2019-04-19T18:52:13.472Z,40.60
2019-04-19T18:54:48.258Z,40.60
2019-04-19T18:57:09.651Z,40.60
2019-04-19T18:59:38.877Z,40.70
2019-04-19T19:02:14.149Z,40.90
2019-04-19T19:04:39.007Z,41.00
2019-04-19T19:07:15.994Z,41.00
2019-04-19T19:09:44.781Z,41.00
2019-04-19T19:12:13.086Z,41.10
2019-04-19T19:14:44.858Z,41.80
2019-04-19T19:17:15.253Z,41.20
2019-04-19T19:19:41.955Z,41.20
2019-04-19T19:22:12.922Z,41.40
2019-04-19T19:25:01.055Z,41.50
2019-04-19T19:27:20.422Z,41.50
2019-04-19T19:29:46.489Z,41.60
2019-04-19T19:32:17.963Z,41.90
2019-04-19T19:34:48.156Z,41.90
2019-04-19T19:37:22.458Z,42.00
2019-04-19T19:39:57.031Z,42.20
2019-04-19T19:42:47.867Z,42.30
2019-04-19T19:45:11.709Z,42.30
2019-04-19T19:48:12.904Z,42.40
2019-04-19T19:50:53.941Z,42.40
2019-04-19T19:53:17.022Z,42.40
2019-04-19T19:55:46.033Z,42.50
2019-04-19T19:58:08.154Z,42.50
2019-04-19T20:00:43.225Z,42.70
2019-04-19T20:03:11.534Z,42.80
2019-04-19T20:05:34.771Z,42.80
2019-04-19T20:08:01.683Z,43.00
2019-04-19T20:10:36.088Z,42.90
2019-04-19T20:13:06.180Z,43.20
2019-04-19T20:15:33.889Z,43.30
2019-04-19T20:18:04.696Z,43.40
2019-04-19T20:20:37.976Z,43.50
2019-04-19T20:23:06.538Z,43.50
2019-04-19T20:25:44.660Z,43.70
2019-04-19T20:28:07.182Z,43.90
2019-04-19T20:30:40.636Z,43.90
2019-04-19T20:33:08.380Z,44.00
2019-04-19T20:35:38.773Z,44.00
2019-04-19T20:38:11.281Z,44.00
2019-04-19T20:40:49.230Z,44.10
2019-04-19T20:43:31.881Z,44.30
2019-04-19T20:45:46.219Z,44.40
2019-04-19T20:48:16.192Z,44.30
2019-04-19T20:50:52.262Z,44.40
2019-04-19T20:53:27.221Z,44.60
2019-04-19T20:56:27.465Z,44.70
2019-04-19T20:58:31.210Z,44.70
2019-04-19T21:00:58.858Z,44.80
2019-04-19T21:03:34.351Z,44.90
2019-04-19T21:05:59.876Z,45.00
2019-04-19T21:08:30.243Z,45.00
2019-04-19T21:11:02.785Z,45.00
2019-04-19T21:13:44.592Z,45.10
2019-04-19T21:16:08.473Z,45.10
2019-04-19T21:18:37.347Z,45.20
2019-04-19T21:21:10.965Z,45.20
2019-04-19T21:23:38.130Z,45.30
2019-04-19T21:26:14.572Z,45.50
2019-04-19T21:28:45.143Z,45.50
2019-04-19T21:31:10.622Z,45.60
2019-04-19T21:33:45.110Z,45.60
2019-04-19T21:36:12.954Z,45.70
2019-04-19T21:38:40.839Z,45.70
2019-04-19T21:41:20.165Z,45.90
2019-04-19T21:43:43.634Z,45.90
2019-04-19T21:46:19.197Z,46.00
2019-04-19T21:48:44.466Z,46.20
2019-04-19T21:51:18.558Z,46.20
2019-04-19T21:53:47.794Z,46.20
2019-04-19T21:56:16.700Z,46.40
2019-04-19T21:58:47.573Z,46.50
2019-04-19T22:01:19.074Z,46.50
2019-04-19T22:03:55.024Z,46.60
2019-04-19T22:06:24.033Z,46.70
2019-04-19T22:08:50.302Z,46.70
2019-04-19T22:11:20.548Z,46.60
2019-04-19T22:13:52.498Z,46.60
2019-04-19T22:16:28.862Z,46.60
2019-04-19T22:18:54.028Z,46.70
2019-04-19T22:21:22.810Z,46.80
2019-04-19T22:23:54.604Z,46.80
2019-04-19T22:26:30.112Z,46.70
2019-04-19T22:28:55.377Z,46.80
2019-04-19T22:31:29.101Z,46.90
2019-04-19T22:33:56.408Z,46.90
2019-04-19T22:36:25.797Z,46.90
2019-04-19T22:38:58.337Z,46.90
2019-04-19T22:41:27.000Z,47.00
2019-04-19T22:43:56.762Z,47.30
2019-04-19T22:46:25.792Z,47.40
2019-04-19T22:49:00.113Z,47.30
2019-04-19T22:51:26.716Z,47.40
2019-04-19T22:53:56.627Z,47.40
2019-04-19T22:56:36.325Z,47.50
2019-04-19T22:58:58.116Z,47.70
2019-04-19T23:02:03.114Z,47.80
2019-04-19T23:04:30.903Z,47.80
2019-04-19T23:07:05.091Z,47.90
2019-04-19T23:09:32.561Z,48.00
2019-04-19T23:12:02.537Z,47.90
2019-04-19T23:14:50.604Z,47.80
2019-04-19T23:17:28.198Z,47.70
2019-04-19T23:19:53.346Z,47.80
2019-04-19T23:22:29.642Z,47.80
2019-04-19T23:25:00.316Z,47.80
2019-04-19T23:27:38.295Z,47.80
2019-04-19T23:30:16.827Z,47.90
2019-04-19T23:32:41.183Z,47.90
2019-04-19T23:35:12.176Z,48.00
2019-04-19T23:37:42.514Z,48.10
2019-04-19T23:40:13.118Z,48.20
2019-04-19T23:42:45.449Z,48.20
2019-04-19T23:45:14.614Z,48.40
2019-04-19T23:47:49.858Z,48.50
2019-04-19T23:50:17.619Z,48.50
2019-04-19T23:52:52.223Z,48.60
2019-04-19T23:55:18.147Z,48.70
2019-04-19T23:57:51.005Z,48.80
